createdAt,value
2022-12-23T00:04:18.720Z,100.00
2022-12-23T00:09:20.139Z,100.00
2022-12-23T00:14:40.015Z,100.00
2022-12-23T00:19:41.399Z,100.00
2022-12-23T00:24:42.778Z,100.00
2022-12-23T00:29:44.117Z,100.00
2022-12-23T00:34:45.421Z,100.00
2022-12-23T00:40:06.910Z,100.00
2022-12-23T00:45:17.983Z,100.00
2022-12-23T00:50:19.284Z,100.00
2022-12-23T00:55:21.156Z,100.00
2022-12-23T01:00:43.031Z,100.00
2022-12-23T01:05:44.411Z,100.00
2022-12-23T01:10:45.784Z,100.00
2022-12-23T01:15:47.560Z,100.00
2022-12-23T01:20:48.943Z,100.00
2022-12-23T01:25:57.497Z,100.00
2022-12-23T01:31:00.897Z,100.00
2022-12-23T01:36:03.805Z,100.00
2022-12-23T01:41:05.307Z,100.00
2022-12-23T01:46:06.715Z,100.00
2022-12-23T01:51:16.700Z,100.00
2022-12-23T01:56:26.666Z,100.00
2022-12-23T02:01:48.361Z,100.00
2022-12-23T02:07:10.010Z,100.00
2022-12-23T02:12:29.988Z,100.00
2022-12-23T02:17:38.296Z,100.00
2022-12-23T02:23:17.499Z,100.00
2022-12-23T02:28:52.264Z,100.00
2022-12-23T02:34:21.364Z,100.00
2022-12-23T02:39:39.469Z,100.00
2022-12-23T02:44:45.587Z,100.00
2022-12-23T02:49:57.476Z,100.00
2022-12-23T02:55:03.081Z,100.00
2022-12-23T03:00:06.362Z,100.00
2022-12-23T03:05:39.536Z,100.00
2022-12-23T03:10:55.284Z,100.00
2022-12-23T03:16:13.450Z,100.00
2022-12-23T03:21:24.420Z,100.00
2022-12-23T03:26:41.519Z,100.00
2022-12-23T03:31:44.250Z,100.00
2022-12-23T03:36:52.462Z,100.00
2022-12-23T03:42:04.706Z,100.00
2022-12-23T03:47:12.283Z,100.00
2022-12-23T03:52:22.470Z,100.00
2022-12-23T03:57:36.409Z,100.00
2022-12-23T04:03:10.254Z,100.00
2022-12-23T04:08:18.896Z,100.00
2022-12-23T04:13:20.417Z,100.00
2022-12-23T04:18:21.726Z,100.00
2022-12-23T04:23:23.231Z,100.00
2022-12-23T04:28:24.673Z,100.00
2022-12-23T04:33:26.123Z,100.00
2022-12-23T04:38:27.465Z,100.00
2022-12-23T04:43:28.891Z,100.00
2022-12-23T04:48:30.619Z,100.00
2022-12-23T04:53:32.149Z,100.00
2022-12-23T04:58:33.516Z,100.00
2022-12-23T05:03:35.140Z,100.00
2022-12-23T05:08:36.587Z,100.00
2022-12-23T05:13:38.033Z,100.00
2022-12-23T05:18:39.391Z,100.00
2022-12-23T05:23:40.794Z,100.00
2022-12-23T05:28:45.520Z,100.00
2022-12-23T05:33:46.861Z,100.00
2022-12-23T05:38:48.391Z,100.00
2022-12-23T05:43:49.690Z,100.00
2022-12-23T05:48:51.020Z,100.00
2022-12-23T05:53:52.475Z,100.00
2022-12-23T05:58:54.080Z,100.00
2022-12-23T06:03:55.953Z,100.00
2022-12-23T06:09:00.749Z,100.00
2022-12-23T06:14:02.729Z,100.00
2022-12-23T06:19:04.285Z,100.00
2022-12-23T06:24:06.291Z,100.00
2022-12-23T06:29:07.624Z,100.00
2022-12-23T06:34:09.044Z,100.00
2022-12-23T06:39:11.839Z,100.00
2022-12-23T06:44:13.209Z,100.00
2022-12-23T06:49:14.550Z,100.00
2022-12-23T06:54:15.915Z,100.00
2022-12-23T06:59:17.282Z,100.00
2022-12-23T07:04:19.029Z,100.00
2022-12-23T07:09:20.422Z,100.00
2022-12-23T07:14:21.910Z,100.00
2022-12-23T07:19:23.995Z,100.00
2022-12-23T07:24:25.302Z,100.00
2022-12-23T07:29:26.642Z,100.00
2022-12-23T07:34:28.073Z,100.00
2022-12-23T07:39:29.439Z,100.00
2022-12-23T07:44:30.811Z,100.00
2022-12-23T07:49:32.348Z,100.00
2022-12-23T07:54:33.683Z,100.00
2022-12-23T07:59:35.288Z,100.00
2022-12-23T08:04:42.568Z,100.00
2022-12-23T08:09:47.048Z,100.00
2022-12-23T08:14:48.775Z,100.00
2022-12-23T08:19:50.230Z,100.00
2022-12-23T08:24:52.677Z,100.00
2022-12-23T08:29:54.106Z,100.00
2022-12-23T08:34:57.470Z,100.00
2022-12-23T08:40:00.186Z,100.00
2022-12-23T08:45:01.697Z,100.00
2022-12-23T08:50:03.997Z,100.00
2022-12-23T08:55:05.836Z,100.00
2022-12-23T09:00:07.975Z,100.00
2022-12-23T09:05:09.330Z,100.00
2022-12-23T09:10:11.090Z,100.00
2022-12-23T09:15:12.486Z,100.00
2022-12-23T09:20:13.815Z,100.00
2022-12-23T09:25:15.597Z,100.00
2022-12-23T09:30:17.023Z,100.00
2022-12-23T09:35:18.487Z,100.00
2022-12-23T09:40:21.375Z,100.00
2022-12-23T09:45:41.144Z,99.97
2022-12-23T09:50:43.642Z,99.90
2022-12-23T09:56:00.330Z,100.00
2022-12-23T10:01:15.997Z,99.91
2022-12-23T10:06:25.276Z,99.98
2022-12-23T10:11:31.761Z,100.00
2022-12-23T10:16:39.731Z,100.00
2022-12-23T10:21:47.967Z,100.00
2022-12-23T10:27:10.643Z,100.00
2022-12-23T10:32:44.552Z,100.00
2022-12-23T10:37:54.043Z,100.00
2022-12-23T10:42:55.319Z,100.00
2022-12-23T10:48:35.341Z,100.00
2022-12-23T10:53:47.176Z,100.00
2022-12-23T10:58:57.733Z,100.00
2022-12-23T11:04:16.189Z,100.00
2022-12-23T11:09:24.979Z,100.00
2022-12-23T11:14:52.562Z,100.00
2022-12-23T11:20:06.212Z,100.00
2022-12-23T11:25:36.746Z,100.00
2022-12-23T11:30:55.575Z,100.00
2022-12-23T11:36:02.442Z,100.00
2022-12-23T11:41:05.331Z,100.00
2022-12-23T11:46:16.038Z,100.00
2022-12-23T11:51:25.034Z,100.00
2022-12-23T11:56:27.376Z,100.00
2022-12-23T12:01:28.989Z,100.00
2022-12-23T12:06:32.452Z,100.00
2022-12-23T12:11:44.584Z,100.00
2022-12-23T12:17:23.115Z,100.00
2022-12-23T12:23:06.603Z,100.00
2022-12-23T12:28:18.034Z,100.00
2022-12-23T12:33:26.987Z,100.00
2022-12-23T12:38:34.905Z,100.00
2022-12-23T12:43:46.301Z,100.00
2022-12-23T12:49:00.952Z,100.00
2022-12-23T12:54:05.495Z,100.00
2022-12-23T12:59:11.805Z,100.00
2022-12-23T13:04:31.665Z,100.00
2022-12-23T13:09:50.567Z,100.00
2022-12-23T13:15:23.432Z,100.00
2022-12-23T13:20:38.155Z,100.00
2022-12-23T13:25:44.452Z,100.00
2022-12-23T13:30:59.753Z,100.00
2022-12-23T13:36:16.718Z,100.00
2022-12-23T13:42:04.643Z,100.00
2022-12-23T13:47:45.356Z,100.00
2022-12-23T13:53:01.642Z,100.00
2022-12-23T13:58:13.214Z,100.00
2022-12-23T14:03:23.647Z,100.00
2022-12-23T14:08:40.642Z,100.00
2022-12-23T14:13:51.627Z,100.00
2022-12-23T14:19:29.976Z,100.00
2022-12-23T14:25:04.759Z,100.00
2022-12-23T14:30:16.631Z,100.00
2022-12-23T14:35:47.024Z,100.00
2022-12-23T14:41:13.073Z,100.00
2022-12-23T14:46:36.454Z,100.00
2022-12-23T14:51:39.989Z,100.00
2022-12-23T14:56:41.899Z,100.00
2022-12-23T15:02:09.548Z,100.00
2022-12-23T15:07:20.969Z,100.00
2022-12-23T15:12:31.580Z,100.00
2022-12-23T15:17:36.081Z,100.00
2022-12-23T15:22:38.394Z,100.00
2022-12-23T15:27:40.072Z,100.00
2022-12-23T15:32:44.832Z,100.00
2022-12-23T15:37:49.883Z,100.00
2022-12-23T15:42:51.387Z,100.00
2022-12-23T15:47:52.866Z,100.00
2022-12-23T15:52:56.147Z,100.00
2022-12-23T15:57:59.454Z,100.00
2022-12-23T16:03:03.308Z,100.00
2022-12-23T16:08:10.689Z,100.00
2022-12-23T16:13:17.950Z,100.00
2022-12-23T16:18:19.436Z,100.00
2022-12-23T16:23:22.058Z,100.00
2022-12-23T16:28:29.827Z,100.00
2022-12-23T16:33:38.622Z,100.00
2022-12-23T16:38:40.129Z,100.00
2022-12-23T16:43:47.671Z,100.00
2022-12-23T16:48:57.639Z,100.00
2022-12-23T16:53:59.926Z,100.00
2022-12-23T16:59:01.575Z,100.00
2022-12-23T17:04:03.356Z,100.00
2022-12-23T17:09:06.242Z,100.00
2022-12-23T17:14:15.886Z,100.00
2022-12-23T17:19:23.408Z,100.00
2022-12-23T17:24:30.204Z,100.00
2022-12-23T17:29:31.919Z,100.00
2022-12-23T17:34:33.396Z,100.00
2022-12-23T17:39:34.774Z,100.00
2022-12-23T17:44:36.230Z,100.00
2022-12-23T17:49:37.621Z,100.00
2022-12-23T17:54:39.083Z,100.00
2022-12-23T17:59:40.893Z,100.00
2022-12-23T18:04:42.272Z,100.00
2022-12-23T18:09:43.998Z,100.00
2022-12-23T18:14:45.624Z,100.00
2022-12-23T18:19:47.286Z,100.00
2022-12-23T18:24:53.807Z,100.00
2022-12-23T18:29:58.502Z,100.00
2022-12-23T18:34:59.953Z,100.00
2022-12-23T18:40:01.340Z,100.00
2022-12-23T18:45:02.682Z,100.00
2022-12-23T18:50:04.443Z,100.00
2022-12-23T18:55:07.136Z,100.00
2022-12-23T19:00:15.860Z,100.00
2022-12-23T19:05:28.701Z,100.00
2022-12-23T19:10:39.682Z,99.79
2022-12-23T19:15:42.902Z,98.44
2022-12-23T19:20:45.793Z,96.03
2022-12-23T19:25:54.427Z,94.45
2022-12-23T19:30:56.268Z,92.75
2022-12-23T19:35:57.982Z,91.50
2022-12-23T19:40:59.591Z,90.68
2022-12-23T19:46:03.734Z,89.02
2022-12-23T19:51:11.187Z,88.01
2022-12-23T19:56:15.259Z,86.88
2022-12-23T20:01:19.999Z,85.79
2022-12-23T20:06:28.155Z,85.85
2022-12-23T20:11:33.263Z,87.24
2022-12-23T20:16:35.121Z,85.21
2022-12-23T20:21:37.557Z,86.53
2022-12-23T20:26:39.382Z,87.80
2022-12-23T20:31:40.928Z,88.68
2022-12-23T20:36:42.461Z,85.30
2022-12-23T20:41:43.952Z,87.49
2022-12-23T20:46:45.386Z,84.39
2022-12-23T20:51:47.329Z,84.19
2022-12-23T20:56:48.615Z,82.68
2022-12-23T21:01:50.088Z,82.34
2022-12-23T21:06:51.472Z,82.19
2022-12-23T21:11:52.950Z,80.35
2022-12-23T21:16:55.413Z,79.22
2022-12-23T21:21:56.830Z,78.46
2022-12-23T21:26:58.177Z,78.55
2022-12-23T21:32:00.483Z,77.58
2022-12-23T21:37:02.042Z,75.68
2022-12-23T21:42:03.852Z,75.40
2022-12-23T21:47:05.263Z,74.58
2022-12-23T21:52:06.676Z,73.74
2022-12-23T21:57:08.081Z,73.28
2022-12-23T22:02:15.916Z,75.67
2022-12-23T22:07:17.317Z,75.29
2022-12-23T22:12:18.689Z,75.62
2022-12-23T22:17:20.013Z,75.40
2022-12-23T22:22:21.424Z,75.35
2022-12-23T22:27:22.776Z,76.65
2022-12-23T22:32:24.135Z,75.91
2022-12-23T22:37:25.513Z,78.49
2022-12-23T22:42:26.810Z,79.35
2022-12-23T22:47:28.240Z,80.51
2022-12-23T22:52:29.785Z,80.98
2022-12-23T22:57:31.279Z,82.75
2022-12-23T23:02:32.645Z,81.81
2022-12-23T23:07:34.143Z,79.14
2022-12-23T23:12:35.569Z,77.60
2022-12-23T23:17:36.869Z,74.24
2022-12-23T23:22:38.573Z,75.56
2022-12-23T23:27:39.952Z,76.38
2022-12-23T23:32:41.434Z,74.74
2022-12-23T23:37:42.815Z,76.27
2022-12-23T23:42:44.188Z,76.59
2022-12-23T23:47:45.974Z,76.80
2022-12-23T23:52:47.448Z,76.87
2022-12-23T23:57:48.818Z,79.19
